sensor_id;sensor_type;location;lat;lon;timestamp;P1;durP1;ratioP1;P2;durP2;ratioP2
64667;SDS011;51077;42.716;23.344;2024-01-25T00:01:37;14.20;;;7.10;;
64667;SDS011;51077;42.716;23.344;2024-01-25T00:04:04;11.45;;;6.75;;
64667;SDS011;51077;42.716;23.344;2024-01-25T00:06:29;15.27;;;7.27;;
64667;SDS011;51077;42.716;23.344;2024-01-25T00:08:54;14.80;;;7.47;;
64667;SDS011;51077;42.716;23.344;2024-01-25T00:11:20;12.70;;;7.60;;
64667;SDS011;51077;42.716;23.344;2024-01-25T00:13:45;15.03;;;7.73;;
64667;SDS011;51077;42.716;23.344;2024-01-25T00:16:11;13.17;;;7.40;;
64667;SDS011;51077;42.716;23.344;2024-01-25T00:18:36;14.77;;;8.70;;
64667;SDS011;51077;42.716;23.344;2024-01-25T00:21:01;16.03;;;8.07;;
64667;SDS011;51077;42.716;23.344;2024-01-25T00:23:27;14.27;;;8.67;;
64667;SDS011;51077;42.716;23.344;2024-01-25T00:25:52;17.70;;;9.50;;
64667;SDS011;51077;42.716;23.344;2024-01-25T00:28:18;14.30;;;8.63;;
64667;SDS011;51077;42.716;23.344;2024-01-25T00:30:44;12.63;;;8.43;;
64667;SDS011;51077;42.716;23.344;2024-01-25T00:33:09;13.97;;;8.70;;
64667;SDS011;51077;42.716;23.344;2024-01-25T00:35:34;15.00;;;8.37;;
64667;SDS011;51077;42.716;23.344;2024-01-25T00:38:00;14.63;;;9.00;;
64667;SDS011;51077;42.716;23.344;2024-01-25T00:40:26;14.75;;;9.27;;
64667;SDS011;51077;42.716;23.344;2024-01-25T00:42:52;13.50;;;8.25;;
64667;SDS011;51077;42.716;23.344;2024-01-25T00:45:18;15.43;;;9.65;;
64667;SDS011;51077;42.716;23.344;2024-01-25T00:47:45;16.92;;;10.45;;
64667;SDS011;51077;42.716;23.344;2024-01-25T00:50:10;16.00;;;9.27;;
64667;SDS011;51077;42.716;23.344;2024-01-25T00:52:36;16.55;;;10.20;;
64667;SDS011;51077;42.716;23.344;2024-01-25T00:55:02;16.17;;;9.53;;
64667;SDS011;51077;42.716;23.344;2024-01-25T00:57:28;18.52;;;9.30;;
64667;SDS011;51077;42.716;23.344;2024-01-25T00:59:54;16.75;;;9.85;;
64667;SDS011;51077;42.716;23.344;2024-01-25T01:02:20;17.13;;;9.73;;
64667;SDS011;51077;42.716;23.344;2024-01-25T01:04:47;16.23;;;9.80;;
64667;SDS011;51077;42.716;23.344;2024-01-25T01:07:13;15.07;;;9.23;;
64667;SDS011;51077;42.716;23.344;2024-01-25T01:09:38;17.00;;;9.93;;
64667;SDS011;51077;42.716;23.344;2024-01-25T01:12:04;20.70;;;9.07;;
64667;SDS011;51077;42.716;23.344;2024-01-25T01:14:29;15.80;;;9.17;;
64667;SDS011;51077;42.716;23.344;2024-01-25T01:16:55;15.13;;;9.03;;
64667;SDS011;51077;42.716;23.344;2024-01-25T01:19:20;13.93;;;8.13;;
64667;SDS011;51077;42.716;23.344;2024-01-25T01:21:46;17.40;;;9.00;;
64667;SDS011;51077;42.716;23.344;2024-01-25T01:24:11;13.43;;;8.40;;
64667;SDS011;51077;42.716;23.344;2024-01-25T01:26:37;16.27;;;9.03;;
64667;SDS011;51077;42.716;23.344;2024-01-25T01:29:03;15.52;;;8.93;;
64667;SDS011;51077;42.716;23.344;2024-01-25T01:31:28;17.00;;;10.05;;
64667;SDS011;51077;42.716;23.344;2024-01-25T01:33:54;19.20;;;9.93;;
64667;SDS011;51077;42.716;23.344;2024-01-25T01:36:19;16.87;;;9.10;;
64667;SDS011;51077;42.716;23.344;2024-01-25T01:38:45;15.88;;;8.85;;
64667;SDS011;51077;42.716;23.344;2024-01-25T01:41:11;17.20;;;9.40;;
64667;SDS011;51077;42.716;23.344;2024-01-25T01:43:38;15.35;;;8.75;;
64667;SDS011;51077;42.716;23.344;2024-01-25T01:46:04;16.38;;;9.65;;
64667;SDS011;51077;42.716;23.344;2024-01-25T01:48:35;16.38;;;9.23;;
64667;SDS011;51077;42.716;23.344;2024-01-25T01:51:01;14.63;;;8.83;;
64667;SDS011;51077;42.716;23.344;2024-01-25T01:53:27;14.47;;;9.40;;
64667;SDS011;51077;42.716;23.344;2024-01-25T01:55:52;15.37;;;9.00;;
64667;SDS011;51077;42.716;23.344;2024-01-25T01:58:18;16.23;;;9.90;;
64667;SDS011;51077;42.716;23.344;2024-01-25T02:00:45;15.20;;;9.25;;
64667;SDS011;51077;42.716;23.344;2024-01-25T02:03:11;14.25;;;8.98;;
64667;SDS011;51077;42.716;23.344;2024-01-25T02:05:36;14.77;;;8.90;;
64667;SDS011;51077;42.716;23.344;2024-01-25T02:08:02;16.90;;;8.63;;
64667;SDS011;51077;42.716;23.344;2024-01-25T02:10:28;15.38;;;8.93;;
64667;SDS011;51077;42.716;23.344;2024-01-25T02:12:53;15.77;;;9.33;;
64667;SDS011;51077;42.716;23.344;2024-01-25T02:15:19;17.47;;;8.50;;
64667;SDS011;51077;42.716;23.344;2024-01-25T02:17:44;14.25;;;8.63;;
64667;SDS011;51077;42.716;23.344;2024-01-25T02:20:10;13.80;;;8.83;;
64667;SDS011;51077;42.716;23.344;2024-01-25T02:22:36;15.97;;;8.50;;
64667;SDS011;51077;42.716;23.344;2024-01-25T02:25:01;15.30;;;8.40;;
64667;SDS011;51077;42.716;23.344;2024-01-25T02:27:27;14.60;;;8.90;;
64667;SDS011;51077;42.716;23.344;2024-01-25T02:29:52;12.63;;;7.47;;
64667;SDS011;51077;42.716;23.344;2024-01-25T02:32:17;17.00;;;8.83;;
64667;SDS011;51077;42.716;23.344;2024-01-25T02:34:43;14.53;;;7.80;;
64667;SDS011;51077;42.716;23.344;2024-01-25T02:37:08;12.60;;;7.40;;
64667;SDS011;51077;42.716;23.344;2024-01-25T02:39:36;13.50;;;7.82;;
64667;SDS011;51077;42.716;23.344;2024-01-25T02:42:01;14.03;;;7.80;;
64667;SDS011;51077;42.716;23.344;2024-01-25T02:44:27;13.13;;;7.57;;
64667;SDS011;51077;42.716;23.344;2024-01-25T02:46:52;13.47;;;7.30;;
64667;SDS011;51077;42.716;23.344;2024-01-25T02:49:18;13.77;;;7.57;;
64667;SDS011;51077;42.716;23.344;2024-01-25T02:51:43;12.80;;;7.57;;
64667;SDS011;51077;42.716;23.344;2024-01-25T02:54:09;13.30;;;7.70;;
64667;SDS011;51077;42.716;23.344;2024-01-25T02:56:34;10.57;;;7.78;;
64667;SDS011;51077;42.716;23.344;2024-01-25T02:59:00;13.03;;;7.73;;
64667;SDS011;51077;42.716;23.344;2024-01-25T03:01:26;12.75;;;7.38;;
64667;SDS011;51077;42.716;23.344;2024-01-25T03:03:52;11.95;;;7.70;;
64667;SDS011;51077;42.716;23.344;2024-01-25T03:06:18;12.53;;;7.67;;
64667;SDS011;51077;42.716;23.344;2024-01-25T03:08:43;13.13;;;7.63;;
64667;SDS011;51077;42.716;23.344;2024-01-25T03:11:09;14.90;;;9.07;;
64667;SDS011;51077;42.716;23.344;2024-01-25T03:13:34;14.90;;;8.07;;
64667;SDS011;51077;42.716;23.344;2024-01-25T03:16:00;13.90;;;7.70;;
64667;SDS011;51077;42.716;23.344;2024-01-25T03:18:25;13.90;;;7.97;;
64667;SDS011;51077;42.716;23.344;2024-01-25T03:20:51;11.37;;;7.03;;
64667;SDS011;51077;42.716;23.344;2024-01-25T03:23:16;11.70;;;7.07;;
64667;SDS011;51077;42.716;23.344;2024-01-25T03:25:42;10.80;;;6.07;;
64667;SDS011;51077;42.716;23.344;2024-01-25T03:28:07;8.27;;;5.00;;
64667;SDS011;51077;42.716;23.344;2024-01-25T03:30:34;11.18;;;5.70;;
64667;SDS011;51077;42.716;23.344;2024-01-25T03:33:00;8.18;;;4.80;;
64667;SDS011;51077;42.716;23.344;2024-01-25T03:35:25;8.40;;;4.63;;
64667;SDS011;51077;42.716;23.344;2024-01-25T03:37:51;7.63;;;4.57;;
64667;SDS011;51077;42.716;23.344;2024-01-25T03:40:16;7.27;;;3.93;;
64667;SDS011;51077;42.716;23.344;2024-01-25T03:42:42;8.83;;;4.17;;
64667;SDS011;51077;42.716;23.344;2024-01-25T03:45:07;7.87;;;4.00;;
64667;SDS011;51077;42.716;23.344;2024-01-25T03:47:33;8.33;;;3.90;;
64667;SDS011;51077;42.716;23.344;2024-01-25T03:49:58;6.13;;;3.90;;
64667;SDS011;51077;42.716;23.344;2024-01-25T03:52:25;7.70;;;3.80;;
64667;SDS011;51077;42.716;23.344;2024-01-25T03:54:50;7.23;;;4.00;;
64667;SDS011;51077;42.716;23.344;2024-01-25T03:57:16;7.07;;;3.67;;
64667;SDS011;51077;42.716;23.344;2024-01-25T03:59:41;9.80;;;3.63;;
64667;SDS011;51077;42.716;23.344;2024-01-25T04:02:06;6.87;;;3.57;;
64667;SDS011;51077;42.716;23.344;2024-01-25T04:04:32;7.60;;;3.67;;
64667;SDS011;51077;42.716;23.344;2024-01-25T04:06:57;5.63;;;3.50;;
64667;SDS011;51077;42.716;23.344;2024-01-25T04:09:23;7.13;;;3.93;;
64667;SDS011;51077;42.716;23.344;2024-01-25T04:11:48;6.93;;;3.83;;
64667;SDS011;51077;42.716;23.344;2024-01-25T04:14:14;7.60;;;4.10;;
64667;SDS011;51077;42.716;23.344;2024-01-25T04:16:40;7.68;;;3.55;;
64667;SDS011;51077;42.716;23.344;2024-01-25T04:19:06;5.73;;;3.33;;
64667;SDS011;51077;42.716;23.344;2024-01-25T04:21:31;6.00;;;3.47;;
64667;SDS011;51077;42.716;23.344;2024-01-25T04:23:57;8.37;;;4.13;;
64667;SDS011;51077;42.716;23.344;2024-01-25T04:26:23;8.20;;;4.03;;
64667;SDS011;51077;42.716;23.344;2024-01-25T04:28:48;8.60;;;4.50;;
64667;SDS011;51077;42.716;23.344;2024-01-25T04:31:14;7.07;;;3.83;;
64667;SDS011;51077;42.716;23.344;2024-01-25T04:33:39;5.93;;;3.27;;
64667;SDS011;51077;42.716;23.344;2024-01-25T04:36:05;8.10;;;3.90;;
64667;SDS011;51077;42.716;23.344;2024-01-25T04:38:30;7.60;;;3.97;;
64667;SDS011;51077;42.716;23.344;2024-01-25T04:40:56;6.03;;;3.23;;
64667;SDS011;51077;42.716;23.344;2024-01-25T04:43:21;6.20;;;3.47;;
64667;SDS011;51077;42.716;23.344;2024-01-25T04:45:47;8.77;;;3.90;;
64667;SDS011;51077;42.716;23.344;2024-01-25T04:48:12;5.83;;;3.00;;
64667;SDS011;51077;42.716;23.344;2024-01-25T04:50:38;7.33;;;3.63;;
64667;SDS011;51077;42.716;23.344;2024-01-25T04:53:04;7.13;;;3.20;;
64667;SDS011;51077;42.716;23.344;2024-01-25T04:55:29;6.60;;;3.33;;
64667;SDS011;51077;42.716;23.344;2024-01-25T04:57:55;6.07;;;3.30;;
64667;SDS011;51077;42.716;23.344;2024-01-25T05:00:21;9.30;;;4.10;;
64667;SDS011;51077;42.716;23.344;2024-01-25T05:02:47;4.50;;;2.92;;
64667;SDS011;51077;42.716;23.344;2024-01-25T05:05:14;5.65;;;3.22;;
64667;SDS011;51077;42.716;23.344;2024-01-25T05:07:40;5.28;;;3.03;;
64667;SDS011;51077;42.716;23.344;2024-01-25T05:10:05;5.82;;;3.08;;
64667;SDS011;51077;42.716;23.344;2024-01-25T05:12:31;7.07;;;3.47;;
64667;SDS011;51077;42.716;23.344;2024-01-25T05:14:57;7.33;;;3.10;;
64667;SDS011;51077;42.716;23.344;2024-01-25T05:17:23;6.15;;;3.15;;
64667;SDS011;51077;42.716;23.344;2024-01-25T05:19:48;6.43;;;3.30;;
64667;SDS011;51077;42.716;23.344;2024-01-25T05:22:14;6.23;;;2.93;;
64667;SDS011;51077;42.716;23.344;2024-01-25T05:24:40;5.13;;;2.73;;
64667;SDS011;51077;42.716;23.344;2024-01-25T05:27:05;6.33;;;3.30;;
64667;SDS011;51077;42.716;23.344;2024-01-25T05:29:31;4.97;;;2.93;;
64667;SDS011;51077;42.716;23.344;2024-01-25T05:31:56;5.27;;;2.80;;
64667;SDS011;51077;42.716;23.344;2024-01-25T05:34:22;4.97;;;2.50;;
64667;SDS011;51077;42.716;23.344;2024-01-25T05:36:48;4.47;;;2.70;;
64667;SDS011;51077;42.716;23.344;2024-01-25T05:39:13;6.17;;;2.53;;
64667;SDS011;51077;42.716;23.344;2024-01-25T05:41:38;4.37;;;2.30;;
64667;SDS011;51077;42.716;23.344;2024-01-25T05:44:04;5.68;;;2.72;;
64667;SDS011;51077;42.716;23.344;2024-01-25T05:46:30;5.03;;;2.80;;
64667;SDS011;51077;42.716;23.344;2024-01-25T05:48:55;7.63;;;2.90;;
64667;SDS011;51077;42.716;23.344;2024-01-25T05:51:21;4.83;;;2.43;;
64667;SDS011;51077;42.716;23.344;2024-01-25T05:53:46;5.13;;;2.63;;
64667;SDS011;51077;42.716;23.344;2024-01-25T05:56:11;6.57;;;2.53;;
64667;SDS011;51077;42.716;23.344;2024-01-25T05:58:37;5.10;;;2.70;;
64667;SDS011;51077;42.716;23.344;2024-01-25T06:01:02;4.73;;;2.30;;
64667;SDS011;51077;42.716;23.344;2024-01-25T06:03:28;5.93;;;2.53;;
64667;SDS011;51077;42.716;23.344;2024-01-25T06:05:53;5.10;;;2.20;;
64667;SDS011;51077;42.716;23.344;2024-01-25T06:08:18;3.90;;;1.93;;
64667;SDS011;51077;42.716;23.344;2024-01-25T06:10:44;5.70;;;2.57;;
64667;SDS011;51077;42.716;23.344;2024-01-25T06:13:09;5.77;;;2.83;;
64667;SDS011;51077;42.716;23.344;2024-01-25T06:15:35;5.07;;;2.77;;
64667;SDS011;51077;42.716;23.344;2024-01-25T06:18:00;5.70;;;2.60;;
64667;SDS011;51077;42.716;23.344;2024-01-25T06:20:26;5.17;;;2.27;;
64667;SDS011;51077;42.716;23.344;2024-01-25T06:22:51;4.17;;;2.20;;
64667;SDS011;51077;42.716;23.344;2024-01-25T06:25:17;4.73;;;2.40;;
64667;SDS011;51077;42.716;23.344;2024-01-25T06:27:42;6.80;;;2.70;;
64667;SDS011;51077;42.716;23.344;2024-01-25T06:30:08;5.22;;;2.25;;
64667;SDS011;51077;42.716;23.344;2024-01-25T06:32:34;6.15;;;2.50;;
64667;SDS011;51077;42.716;23.344;2024-01-25T06:34:59;6.33;;;2.10;;
64667;SDS011;51077;42.716;23.344;2024-01-25T06:37:25;5.47;;;2.23;;
64667;SDS011;51077;42.716;23.344;2024-01-25T06:39:50;5.07;;;2.40;;
64667;SDS011;51077;42.716;23.344;2024-01-25T06:42:16;7.07;;;2.80;;
64667;SDS011;51077;42.716;23.344;2024-01-25T06:44:41;5.27;;;3.07;;
64667;SDS011;51077;42.716;23.344;2024-01-25T06:47:07;6.37;;;2.87;;
64667;SDS011;51077;42.716;23.344;2024-01-25T06:49:32;5.40;;;2.90;;
64667;SDS011;51077;42.716;23.344;2024-01-25T06:51:57;5.60;;;2.60;;
64667;SDS011;51077;42.716;23.344;2024-01-25T06:54:23;4.70;;;2.90;;
64667;SDS011;51077;42.716;23.344;2024-01-25T06:56:48;6.53;;;3.20;;
64667;SDS011;51077;42.716;23.344;2024-01-25T06:59:16;6.13;;;2.97;;
64667;SDS011;51077;42.716;23.344;2024-01-25T07:01:42;5.38;;;2.92;;
64667;SDS011;51077;42.716;23.344;2024-01-25T07:04:07;5.03;;;3.20;;
64667;SDS011;51077;42.716;23.344;2024-01-25T07:06:33;7.30;;;3.50;;
64667;SDS011;51077;42.716;23.344;2024-01-25T07:08:58;6.43;;;3.20;;
64667;SDS011;51077;42.716;23.344;2024-01-25T07:11:23;7.33;;;3.93;;
64667;SDS011;51077;42.716;23.344;2024-01-25T07:13:49;7.28;;;3.90;;
64667;SDS011;51077;42.716;23.344;2024-01-25T07:16:15;7.50;;;3.80;;
64667;SDS011;51077;42.716;23.344;2024-01-25T07:18:40;6.43;;;3.50;;
64667;SDS011;51077;42.716;23.344;2024-01-25T07:21:06;6.20;;;3.57;;
64667;SDS011;51077;42.716;23.344;2024-01-25T07:23:32;6.67;;;4.13;;
64667;SDS011;51077;42.716;23.344;2024-01-25T07:25:58;7.25;;;3.85;;
64667;SDS011;51077;42.716;23.344;2024-01-25T07:28:24;6.63;;;3.93;;
64667;SDS011;51077;42.716;23.344;2024-01-25T07:30:50;4.35;;;3.30;;
64667;SDS011;51077;42.716;23.344;2024-01-25T07:33:16;8.60;;;3.77;;
64667;SDS011;51077;42.716;23.344;2024-01-25T07:35:41;6.47;;;3.97;;
64667;SDS011;51077;42.716;23.344;2024-01-25T07:38:10;8.30;;;3.95;;
64667;SDS011;51077;42.716;23.344;2024-01-25T07:40:36;6.70;;;3.80;;
64667;SDS011;51077;42.716;23.344;2024-01-25T07:43:02;7.50;;;3.70;;
64667;SDS011;51077;42.716;23.344;2024-01-25T07:45:28;7.97;;;4.13;;
64667;SDS011;51077;42.716;23.344;2024-01-25T07:47:53;6.67;;;3.93;;
64667;SDS011;51077;42.716;23.344;2024-01-25T07:50:19;4.73;;;3.30;;
64667;SDS011;51077;42.716;23.344;2024-01-25T07:52:44;6.67;;;3.97;;
64667;SDS011;51077;42.716;23.344;2024-01-25T07:55:10;6.63;;;3.27;;
64667;SDS011;51077;42.716;23.344;2024-01-25T07:57:35;7.50;;;3.67;;
64667;SDS011;51077;42.716;23.344;2024-01-25T08:00:00;8.47;;;3.67;;
64667;SDS011;51077;42.716;23.344;2024-01-25T08:02:26;7.40;;;3.90;;
64667;SDS011;51077;42.716;23.344;2024-01-25T08:04:52;6.70;;;3.45;;
64667;SDS011;51077;42.716;23.344;2024-01-25T08:07:17;8.57;;;3.90;;
64667;SDS011;51077;42.716;23.344;2024-01-25T08:09:43;6.83;;;3.43;;
64667;SDS011;51077;42.716;23.344;2024-01-25T08:12:08;8.53;;;4.10;;
64667;SDS011;51077;42.716;23.344;2024-01-25T08:14:34;10.43;;;5.93;;
64667;SDS011;51077;42.716;23.344;2024-01-25T08:16:59;16.23;;;9.87;;
64667;SDS011;51077;42.716;23.344;2024-01-25T08:19:25;19.03;;;11.03;;
64667;SDS011;51077;42.716;23.344;2024-01-25T08:21:50;16.93;;;10.37;;
64667;SDS011;51077;42.716;23.344;2024-01-25T08:24:16;18.40;;;10.37;;
64667;SDS011;51077;42.716;23.344;2024-01-25T08:26:41;16.00;;;9.97;;
64667;SDS011;51077;42.716;23.344;2024-01-25T08:29:07;17.40;;;9.77;;
64667;SDS011;51077;42.716;23.344;2024-01-25T08:31:32;16.87;;;9.40;;
64667;SDS011;51077;42.716;23.344;2024-01-25T08:33:58;15.40;;;9.47;;
64667;SDS011;51077;42.716;23.344;2024-01-25T08:36:23;15.67;;;9.60;;
64667;SDS011;51077;42.716;23.344;2024-01-25T08:38:49;17.70;;;10.02;;
64667;SDS011;51077;42.716;23.344;2024-01-25T08:41:15;16.93;;;10.67;;
64667;SDS011;51077;42.716;23.344;2024-01-25T08:43:41;17.08;;;9.98;;
64667;SDS011;51077;42.716;23.344;2024-01-25T08:46:07;14.30;;;9.32;;
64667;SDS011;51077;42.716;23.344;2024-01-25T08:48:33;13.57;;;8.30;;
64667;SDS011;51077;42.716;23.344;2024-01-25T08:50:59;13.13;;;7.30;;
64667;SDS011;51077;42.716;23.344;2024-01-25T08:53:24;12.60;;;7.07;;
64667;SDS011;51077;42.716;23.344;2024-01-25T08:55:55;15.60;;;7.28;;
64667;SDS011;51077;42.716;23.344;2024-01-25T08:58:21;9.50;;;6.53;;
64667;SDS011;51077;42.716;23.344;2024-01-25T09:00:46;10.57;;;5.75;;
64667;SDS011;51077;42.716;23.344;2024-01-25T09:03:12;10.15;;;5.35;;
64667;SDS011;51077;42.716;23.344;2024-01-25T09:05:39;10.25;;;5.20;;
64667;SDS011;51077;42.716;23.344;2024-01-25T09:08:10;11.18;;;4.38;;
64667;SDS011;51077;42.716;23.344;2024-01-25T09:10:37;8.73;;;4.88;;
64667;SDS011;51077;42.716;23.344;2024-01-25T09:13:03;10.73;;;4.60;;
64667;SDS011;51077;42.716;23.344;2024-01-25T09:15:29;8.57;;;3.90;;
64667;SDS011;51077;42.716;23.344;2024-01-25T09:17:55;6.33;;;3.50;;
64667;SDS011;51077;42.716;23.344;2024-01-25T09:20:20;6.53;;;4.00;;
64667;SDS011;51077;42.716;23.344;2024-01-25T09:22:45;9.17;;;3.97;;
64667;SDS011;51077;42.716;23.344;2024-01-25T09:25:11;9.17;;;3.40;;
64667;SDS011;51077;42.716;23.344;2024-01-25T09:27:37;9.20;;;3.33;;
64667;SDS011;51077;42.716;23.344;2024-01-25T09:30:04;6.80;;;3.17;;
64667;SDS011;51077;42.716;23.344;2024-01-25T09:32:30;8.02;;;4.00;;
64667;SDS011;51077;42.716;23.344;2024-01-25T09:34:55;6.73;;;3.70;;
64667;SDS011;51077;42.716;23.344;2024-01-25T09:37:21;7.60;;;3.50;;
64667;SDS011;51077;42.716;23.344;2024-01-25T09:39:49;8.43;;;3.75;;
64667;SDS011;51077;42.716;23.344;2024-01-25T09:42:16;11.13;;;4.53;;
64667;SDS011;51077;42.716;23.344;2024-01-25T09:44:43;11.60;;;4.80;;
64667;SDS011;51077;42.716;23.344;2024-01-25T09:47:08;9.27;;;6.07;;
64667;SDS011;51077;42.716;23.344;2024-01-25T09:49:34;8.70;;;4.37;;
64667;SDS011;51077;42.716;23.344;2024-01-25T09:52:01;11.27;;;5.77;;
64667;SDS011;51077;42.716;23.344;2024-01-25T09:54:34;12.95;;;6.10;;
64667;SDS011;51077;42.716;23.344;2024-01-25T09:57:01;11.32;;;6.05;;
64667;SDS011;51077;42.716;23.344;2024-01-25T09:59:31;12.90;;;6.25;;
64667;SDS011;51077;42.716;23.344;2024-01-25T10:01:56;10.93;;;6.37;;
64667;SDS011;51077;42.716;23.344;2024-01-25T10:04:23;8.85;;;5.53;;
64667;SDS011;51077;42.716;23.344;2024-01-25T10:06:49;11.95;;;5.88;;
64667;SDS011;51077;42.716;23.344;2024-01-25T10:09:14;10.77;;;6.20;;
64667;SDS011;51077;42.716;23.344;2024-01-25T10:11:40;10.83;;;5.50;;
64667;SDS011;51077;42.716;23.344;2024-01-25T10:14:05;11.97;;;6.30;;
64667;SDS011;51077;42.716;23.344;2024-01-25T10:16:32;11.20;;;6.55;;
64667;SDS011;51077;42.716;23.344;2024-01-25T10:18:57;11.33;;;6.80;;
64667;SDS011;51077;42.716;23.344;2024-01-25T10:21:23;11.67;;;6.50;;
64667;SDS011;51077;42.716;23.344;2024-01-25T10:23:48;11.90;;;6.90;;
64667;SDS011;51077;42.716;23.344;2024-01-25T10:26:15;12.75;;;6.30;;
64667;SDS011;51077;42.716;23.344;2024-01-25T10:28:41;11.77;;;6.70;;
64667;SDS011;51077;42.716;23.344;2024-01-25T10:31:07;11.17;;;6.00;;
64667;SDS011;51077;42.716;23.344;2024-01-25T10:33:33;12.60;;;7.60;;
64667;SDS011;51077;42.716;23.344;2024-01-25T10:36:00;11.50;;;6.65;;
64667;SDS011;51077;42.716;23.344;2024-01-25T10:38:32;15.57;;;6.50;;
64667;SDS011;51077;42.716;23.344;2024-01-25T10:41:03;14.27;;;6.32;;
64667;SDS011;51077;42.716;23.344;2024-01-25T10:43:34;9.57;;;5.45;;
64667;SDS011;51077;42.716;23.344;2024-01-25T10:46:00;10.52;;;6.00;;
64667;SDS011;51077;42.716;23.344;2024-01-25T10:48:25;12.57;;;6.17;;
64667;SDS011;51077;42.716;23.344;2024-01-25T10:50:53;11.90;;;6.43;;
64667;SDS011;51077;42.716;23.344;2024-01-25T10:53:19;12.70;;;6.90;;
64667;SDS011;51077;42.716;23.344;2024-01-25T10:55:46;16.77;;;7.25;;
64667;SDS011;51077;42.716;23.344;2024-01-25T10:58:13;15.60;;;7.67;;
64667;SDS011;51077;42.716;23.344;2024-01-25T11:00:38;14.10;;;6.97;;
64667;SDS011;51077;42.716;23.344;2024-01-25T11:03:04;14.20;;;6.70;;
64667;SDS011;51077;42.716;23.344;2024-01-25T11:05:31;10.80;;;6.30;;
64667;SDS011;51077;42.716;23.344;2024-01-25T11:07:57;12.00;;;6.73;;
64667;SDS011;51077;42.716;23.344;2024-01-25T11:10:26;12.35;;;6.53;;
64667;SDS011;51077;42.716;23.344;2024-01-25T11:13:03;13.50;;;6.57;;
64667;SDS011;51077;42.716;23.344;2024-01-25T11:18:00;12.35;;;6.90;;
64667;SDS011;51077;42.716;23.344;2024-01-25T11:20:29;13.30;;;6.93;;
64667;SDS011;51077;42.716;23.344;2024-01-25T11:22:55;12.40;;;6.60;;
64667;SDS011;51077;42.716;23.344;2024-01-25T11:25:23;11.73;;;6.68;;
64667;SDS011;51077;42.716;23.344;2024-01-25T11:27:48;11.13;;;6.40;;
64667;SDS011;51077;42.716;23.344;2024-01-25T11:30:16;10.32;;;6.90;;
64667;SDS011;51077;42.716;23.344;2024-01-25T11:32:44;15.57;;;7.47;;
64667;SDS011;51077;42.716;23.344;2024-01-25T11:35:11;12.85;;;6.80;;
64667;SDS011;51077;42.716;23.344;2024-01-25T11:37:41;12.60;;;6.85;;
64667;SDS011;51077;42.716;23.344;2024-01-25T11:40:07;10.27;;;5.93;;
64667;SDS011;51077;42.716;23.344;2024-01-25T11:42:33;12.07;;;5.85;;
64667;SDS011;51077;42.716;23.344;2024-01-25T11:44:58;9.93;;;5.03;;
64667;SDS011;51077;42.716;23.344;2024-01-25T11:47:23;9.90;;;5.37;;
64667;SDS011;51077;42.716;23.344;2024-01-25T11:49:49;9.57;;;4.90;;
64667;SDS011;51077;42.716;23.344;2024-01-25T11:52:14;8.30;;;5.13;;
64667;SDS011;51077;42.716;23.344;2024-01-25T11:54:40;9.55;;;4.53;;
64667;SDS011;51077;42.716;23.344;2024-01-25T11:57:06;11.40;;;4.90;;
64667;SDS011;51077;42.716;23.344;2024-01-25T11:59:31;7.87;;;4.30;;
64667;SDS011;51077;42.716;23.344;2024-01-25T12:01:57;8.30;;;4.10;;
64667;SDS011;51077;42.716;23.344;2024-01-25T12:04:24;7.20;;;3.80;;
64667;SDS011;51077;42.716;23.344;2024-01-25T12:06:50;6.93;;;3.38;;
64667;SDS011;51077;42.716;23.344;2024-01-25T12:09:15;6.57;;;3.67;;
64667;SDS011;51077;42.716;23.344;2024-01-25T12:11:41;8.87;;;4.03;;
64667;SDS011;51077;42.716;23.344;2024-01-25T12:14:07;11.83;;;5.60;;
64667;SDS011;51077;42.716;23.344;2024-01-25T12:16:33;13.38;;;5.28;;
64667;SDS011;51077;42.716;23.344;2024-01-25T12:18:59;9.77;;;5.07;;
64667;SDS011;51077;42.716;23.344;2024-01-25T12:21:24;9.33;;;5.50;;
64667;SDS011;51077;42.716;23.344;2024-01-25T12:23:50;9.63;;;5.23;;
64667;SDS011;51077;42.716;23.344;2024-01-25T12:26:16;10.82;;;5.05;;
64667;SDS011;51077;42.716;23.344;2024-01-25T12:28:42;10.88;;;4.75;;
64667;SDS011;51077;42.716;23.344;2024-01-25T12:31:08;9.18;;;4.30;;
64667;SDS011;51077;42.716;23.344;2024-01-25T12:33:34;10.07;;;5.07;;
64667;SDS011;51077;42.716;23.344;2024-01-25T12:36:00;9.70;;;4.90;;
64667;SDS011;51077;42.716;23.344;2024-01-25T12:38:27;9.02;;;4.55;;
64667;SDS011;51077;42.716;23.344;2024-01-25T12:40:54;9.30;;;5.10;;
64667;SDS011;51077;42.716;23.344;2024-01-25T12:43:20;10.93;;;5.13;;
64667;SDS011;51077;42.716;23.344;2024-01-25T12:45:48;10.02;;;4.30;;
64667;SDS011;51077;42.716;23.344;2024-01-25T12:48:14;8.43;;;4.10;;
64667;SDS011;51077;42.716;23.344;2024-01-25T12:50:40;7.75;;;3.80;;
64667;SDS011;51077;42.716;23.344;2024-01-25T12:53:06;9.82;;;3.90;;
64667;SDS011;51077;42.716;23.344;2024-01-25T12:55:33;7.07;;;3.83;;
64667;SDS011;51077;42.716;23.344;2024-01-25T12:58:00;8.07;;;3.88;;
64667;SDS011;51077;42.716;23.344;2024-01-25T13:00:25;9.27;;;3.60;;
64667;SDS011;51077;42.716;23.344;2024-01-25T13:02:51;8.70;;;3.47;;
64667;SDS011;51077;42.716;23.344;2024-01-25T13:05:18;7.47;;;3.20;;
64667;SDS011;51077;42.716;23.344;2024-01-25T13:07:44;10.25;;;3.40;;
64667;SDS011;51077;42.716;23.344;2024-01-25T13:10:10;9.50;;;3.72;;
64667;SDS011;51077;42.716;23.344;2024-01-25T13:12:39;7.38;;;3.53;;
64667;SDS011;51077;42.716;23.344;2024-01-25T13:15:05;6.70;;;3.60;;
64667;SDS011;51077;42.716;23.344;2024-01-25T13:17:31;13.93;;;4.28;;
64667;SDS011;51077;42.716;23.344;2024-01-25T13:19:57;8.60;;;3.67;;
64667;SDS011;51077;42.716;23.344;2024-01-25T13:22:22;8.47;;;4.20;;
64667;SDS011;51077;42.716;23.344;2024-01-25T13:24:49;10.00;;;4.03;;
64667;SDS011;51077;42.716;23.344;2024-01-25T13:27:15;6.83;;;3.50;;
64667;SDS011;51077;42.716;23.344;2024-01-25T13:29:41;8.23;;;3.70;;
64667;SDS011;51077;42.716;23.344;2024-01-25T13:32:07;7.83;;;3.60;;
64667;SDS011;51077;42.716;23.344;2024-01-25T13:34:33;5.85;;;3.00;;
64667;SDS011;51077;42.716;23.344;2024-01-25T13:36:58;5.57;;;2.77;;
64667;SDS011;51077;42.716;23.344;2024-01-25T13:39:24;7.17;;;3.30;;
64667;SDS011;51077;42.716;23.344;2024-01-25T13:41:51;8.23;;;3.35;;
64667;SDS011;51077;42.716;23.344;2024-01-25T13:44:16;7.70;;;3.20;;
64667;SDS011;51077;42.716;23.344;2024-01-25T13:46:42;8.43;;;2.90;;
64667;SDS011;51077;42.716;23.344;2024-01-25T13:49:07;7.60;;;2.73;;
64667;SDS011;51077;42.716;23.344;2024-01-25T13:51:33;7.10;;;3.00;;
64667;SDS011;51077;42.716;23.344;2024-01-25T13:53:58;8.43;;;3.03;;
64667;SDS011;51077;42.716;23.344;2024-01-25T13:56:24;8.67;;;2.70;;
64667;SDS011;51077;42.716;23.344;2024-01-25T13:58:49;8.43;;;3.20;;
64667;SDS011;51077;42.716;23.344;2024-01-25T14:01:14;7.73;;;3.13;;
64667;SDS011;51077;42.716;23.344;2024-01-25T14:03:40;7.30;;;2.53;;
64667;SDS011;51077;42.716;23.344;2024-01-25T14:06:05;8.40;;;3.07;;
64667;SDS011;51077;42.716;23.344;2024-01-25T14:08:34;7.63;;;2.88;;
64667;SDS011;51077;42.716;23.344;2024-01-25T14:11:03;8.98;;;3.15;;
64667;SDS011;51077;42.716;23.344;2024-01-25T14:13:30;7.90;;;2.88;;
64667;SDS011;51077;42.716;23.344;2024-01-25T14:15:56;5.93;;;2.77;;
64667;SDS011;51077;42.716;23.344;2024-01-25T14:18:23;9.13;;;2.70;;
64667;SDS011;51077;42.716;23.344;2024-01-25T14:20:49;8.10;;;3.05;;
64667;SDS011;51077;42.716;23.344;2024-01-25T14:23:15;6.47;;;2.33;;